sensor_id;sensor_type;location;lat;lon;timestamp;temperature;humidity
29731;DHT22;16639;51.488;0.152;2023-06-14T00:01:03;17.60;89.30
29731;DHT22;16639;51.488;0.152;2023-06-14T00:03:33;17.70;90.30
29731;DHT22;16639;51.488;0.152;2023-06-14T00:06:00;17.60;90.10
29731;DHT22;16639;51.488;0.152;2023-06-14T00:08:28;17.60;91.30
29731;DHT22;16639;51.488;0.152;2023-06-14T00:10:55;17.60;90.50
29731;DHT22;16639;51.488;0.152;2023-06-14T00:13:23;17.60;90.20
29731;DHT22;16639;51.488;0.152;2023-06-14T00:15:50;17.60;91.80
29731;DHT22;16639;51.488;0.152;2023-06-14T00:18:22;17.60;91.30
29731;DHT22;16639;51.488;0.152;2023-06-14T00:20:53;17.50;88.70
29731;DHT22;16639;51.488;0.152;2023-06-14T00:23:21;17.40;88.20
29731;DHT22;16639;51.488;0.152;2023-06-14T00:25:48;17.50;90.10
29731;DHT22;16639;51.488;0.152;2023-06-14T00:28:16;17.50;90.70
29731;DHT22;16639;51.488;0.152;2023-06-14T00:30:43;17.40;92.00
29731;DHT22;16639;51.488;0.152;2023-06-14T00:33:14;17.30;93.70
29731;DHT22;16639;51.488;0.152;2023-06-14T00:35:41;17.30;95.90
29731;DHT22;16639;51.488;0.152;2023-06-14T00:38:09;17.20;97.30
29731;DHT22;16639;51.488;0.152;2023-06-14T00:40:36;17.10;98.20
29731;DHT22;16639;51.488;0.152;2023-06-14T00:43:04;17.10;99.00
29731;DHT22;16639;51.488;0.152;2023-06-14T00:45:31;17.10;99.30
29731;DHT22;16639;51.488;0.152;2023-06-14T00:48:03;17.10;99.80
29731;DHT22;16639;51.488;0.152;2023-06-14T00:50:34;17.10;99.90
29731;DHT22;16639;51.488;0.152;2023-06-14T00:53:02;17.00;99.90
29731;DHT22;16639;51.488;0.152;2023-06-14T00:55:30;16.90;99.70
29731;DHT22;16639;51.488;0.152;2023-06-14T01:09:37;16.80;99.90
29731;DHT22;16639;51.488;0.152;2023-06-14T01:18:52;16.40;99.90
29731;DHT22;16639;51.488;0.152;2023-06-14T01:29:48;17.00;99.90
29731;DHT22;16639;51.488;0.152;2023-06-14T01:33:03;16.10;99.90
29731;DHT22;16639;51.488;0.152;2023-06-14T01:36:36;16.10;99.90
29731;DHT22;16639;51.488;0.152;2023-06-14T01:39:14;16.20;99.90
29731;DHT22;16639;51.488;0.152;2023-06-14T01:42:42;16.10;99.90
29731;DHT22;16639;51.488;0.152;2023-06-14T02:04:16;15.90;99.90
29731;DHT22;16639;51.488;0.152;2023-06-14T02:06:57;15.80;99.90
29731;DHT22;16639;51.488;0.152;2023-06-14T02:09:49;15.80;99.90
29731;DHT22;16639;51.488;0.152;2023-06-14T02:13:24;15.80;99.90
29731;DHT22;16639;51.488;0.152;2023-06-14T02:19:32;15.60;99.90
29731;DHT22;16639;51.488;0.152;2023-06-14T02:30:37;15.50;99.90
29731;DHT22;16639;51.488;0.152;2023-06-14T02:41:49;15.40;99.90
29731;DHT22;16639;51.488;0.152;2023-06-14T02:45:42;15.40;99.90
29731;DHT22;16639;51.488;0.152;2023-06-14T02:49:47;15.40;99.90
29731;DHT22;16639;51.488;0.152;2023-06-14T03:01:27;15.20;99.90
29731;DHT22;16639;51.488;0.152;2023-06-14T03:05:12;15.10;99.90
29731;DHT22;16639;51.488;0.152;2023-06-14T03:08:18;15.00;99.90
29731;DHT22;16639;51.488;0.152;2023-06-14T03:15:30;15.00;99.90
29731;DHT22;16639;51.488;0.152;2023-06-14T03:43:12;15.00;99.90
29731;DHT22;16639;51.488;0.152;2023-06-14T03:57:25;15.00;99.90
29731;DHT22;16639;51.488;0.152;2023-06-14T04:21:02;15.00;99.90
29731;DHT22;16639;51.488;0.152;2023-06-14T04:23:29;15.00;99.90
29731;DHT22;16639;51.488;0.152;2023-06-14T04:25:57;15.00;99.90
29731;DHT22;16639;51.488;0.152;2023-06-14T04:28:29;15.00;99.90
29731;DHT22;16639;51.488;0.152;2023-06-14T04:30:58;15.00;99.90
29731;DHT22;16639;51.488;0.152;2023-06-14T04:33:28;15.20;99.90
29731;DHT22;16639;51.488;0.152;2023-06-14T04:35:56;15.00;99.90
29731;DHT22;16639;51.488;0.152;2023-06-14T04:38:23;15.10;99.90
29731;DHT22;16639;51.488;0.152;2023-06-14T04:40:52;15.10;99.90
29731;DHT22;16639;51.488;0.152;2023-06-14T04:43:20;15.00;99.90
29731;DHT22;16639;51.488;0.152;2023-06-14T04:45:54;15.00;99.90
29731;DHT22;16639;51.488;0.152;2023-06-14T04:48:23;14.90;99.90
29731;DHT22;16639;51.488;0.152;2023-06-14T04:50:52;14.90;99.90
29731;DHT22;16639;51.488;0.152;2023-06-14T04:53:21;14.90;99.90
29731;DHT22;16639;51.488;0.152;2023-06-14T04:55:50;14.90;99.90
29731;DHT22;16639;51.488;0.152;2023-06-14T04:58:17;14.90;99.90
29731;DHT22;16639;51.488;0.152;2023-06-14T05:00:45;15.00;99.90
29731;DHT22;16639;51.488;0.152;2023-06-14T05:03:12;15.00;99.90
29731;DHT22;16639;51.488;0.152;2023-06-14T05:05:41;15.10;99.90
29731;DHT22;16639;51.488;0.152;2023-06-14T05:08:08;15.10;99.90
29731;DHT22;16639;51.488;0.152;2023-06-14T05:10:36;15.10;99.90
29731;DHT22;16639;51.488;0.152;2023-06-14T05:13:04;15.10;99.90
29731;DHT22;16639;51.488;0.152;2023-06-14T05:15:32;15.10;99.90
29731;DHT22;16639;51.488;0.152;2023-06-14T05:17:59;15.20;99.90
29731;DHT22;16639;51.488;0.152;2023-06-14T05:20:27;15.30;99.90
29731;DHT22;16639;51.488;0.152;2023-06-14T05:22:55;15.20;99.90
29731;DHT22;16639;51.488;0.152;2023-06-14T05:25:23;15.20;99.90
29731;DHT22;16639;51.488;0.152;2023-06-14T05:27:51;14.50;99.90
29731;DHT22;16639;51.488;0.152;2023-06-14T05:30:19;15.20;99.90
29731;DHT22;16639;51.488;0.152;2023-06-14T05:32:46;15.20;99.90
29731;DHT22;16639;51.488;0.152;2023-06-14T05:35:14;15.30;99.90
29731;DHT22;16639;51.488;0.152;2023-06-14T05:37:42;15.20;99.90
29731;DHT22;16639;51.488;0.152;2023-06-14T05:40:10;15.30;99.90
29731;DHT22;16639;51.488;0.152;2023-06-14T05:42:38;15.30;99.90
29731;DHT22;16639;51.488;0.152;2023-06-14T05:45:06;15.40;99.90
29731;DHT22;16639;51.488;0.152;2023-06-14T05:47:33;15.40;99.90
29731;DHT22;16639;51.488;0.152;2023-06-14T05:50:01;15.40;99.90
29731;DHT22;16639;51.488;0.152;2023-06-14T05:52:28;15.40;99.90
29731;DHT22;16639;51.488;0.152;2023-06-14T05:54:56;15.40;99.90
29731;DHT22;16639;51.488;0.152;2023-06-14T05:57:24;15.50;99.90
29731;DHT22;16639;51.488;0.152;2023-06-14T05:59:51;15.50;99.90
29731;DHT22;16639;51.488;0.152;2023-06-14T06:02:18;15.50;99.90
29731;DHT22;16639;51.488;0.152;2023-06-14T06:04:46;15.50;99.90
29731;DHT22;16639;51.488;0.152;2023-06-14T06:07:13;15.50;99.90
29731;DHT22;16639;51.488;0.152;2023-06-14T06:09:41;15.60;99.90
29731;DHT22;16639;51.488;0.152;2023-06-14T06:12:16;15.60;99.90
29731;DHT22;16639;51.488;0.152;2023-06-14T06:15:09;15.70;99.90
29731;DHT22;16639;51.488;0.152;2023-06-14T06:17:40;15.70;99.90
29731;DHT22;16639;51.488;0.152;2023-06-14T06:20:23;15.70;99.90
29731;DHT22;16639;51.488;0.152;2023-06-14T06:22:56;15.80;99.90
29731;DHT22;16639;51.488;0.152;2023-06-14T06:25:25;15.80;99.90
29731;DHT22;16639;51.488;0.152;2023-06-14T06:27:54;15.80;99.90
29731;DHT22;16639;51.488;0.152;2023-06-14T06:30:24;15.90;99.90
29731;DHT22;16639;51.488;0.152;2023-06-14T06:32:51;15.90;99.90
29731;DHT22;16639;51.488;0.152;2023-06-14T06:35:20;15.90;99.90
29731;DHT22;16639;51.488;0.152;2023-06-14T06:37:48;16.00;99.90
29731;DHT22;16639;51.488;0.152;2023-06-14T06:40:15;16.10;99.90
29731;DHT22;16639;51.488;0.152;2023-06-14T06:42:43;16.00;99.90
29731;DHT22;16639;51.488;0.152;2023-06-14T06:45:10;16.10;99.90
29731;DHT22;16639;51.488;0.152;2023-06-14T06:47:37;16.10;99.90
29731;DHT22;16639;51.488;0.152;2023-06-14T06:50:05;16.10;99.90
29731;DHT22;16639;51.488;0.152;2023-06-14T06:52:35;16.10;99.90
29731;DHT22;16639;51.488;0.152;2023-06-14T06:55:02;16.10;99.90
29731;DHT22;16639;51.488;0.152;2023-06-14T06:57:30;16.20;99.90
29731;DHT22;16639;51.488;0.152;2023-06-14T06:59:58;16.20;99.90
29731;DHT22;16639;51.488;0.152;2023-06-14T07:02:25;16.30;99.90
29731;DHT22;16639;51.488;0.152;2023-06-14T07:04:52;16.60;99.90
29731;DHT22;16639;51.488;0.152;2023-06-14T07:07:20;16.40;99.90
29731;DHT22;16639;51.488;0.152;2023-06-14T07:09:47;16.50;99.90
29731;DHT22;16639;51.488;0.152;2023-06-14T07:12:15;16.50;99.90
29731;DHT22;16639;51.488;0.152;2023-06-14T07:14:42;16.60;99.90
29731;DHT22;16639;51.488;0.152;2023-06-14T07:17:09;16.60;99.90
29731;DHT22;16639;51.488;0.152;2023-06-14T07:19:37;16.70;99.90
29731;DHT22;16639;51.488;0.152;2023-06-14T07:22:04;16.70;99.90
29731;DHT22;16639;51.488;0.152;2023-06-14T07:24:32;16.70;99.90
29731;DHT22;16639;51.488;0.152;2023-06-14T07:27:00;16.70;99.90
29731;DHT22;16639;51.488;0.152;2023-06-14T07:29:28;16.80;99.90
29731;DHT22;16639;51.488;0.152;2023-06-14T07:31:55;16.80;99.90
29731;DHT22;16639;51.488;0.152;2023-06-14T07:34:22;16.80;99.90
29731;DHT22;16639;51.488;0.152;2023-06-14T07:36:50;16.80;99.90
29731;DHT22;16639;51.488;0.152;2023-06-14T07:39:18;16.90;99.90
29731;DHT22;16639;51.488;0.152;2023-06-14T07:41:46;16.90;99.90
29731;DHT22;16639;51.488;0.152;2023-06-14T07:44:13;17.00;99.90
29731;DHT22;16639;51.488;0.152;2023-06-14T07:46:41;15.90;99.90
29731;DHT22;16639;51.488;0.152;2023-06-14T07:49:09;17.10;99.90
29731;DHT22;16639;51.488;0.152;2023-06-14T07:51:39;17.10;99.90
29731;DHT22;16639;51.488;0.152;2023-06-14T07:54:07;17.20;99.90
29731;DHT22;16639;51.488;0.152;2023-06-14T07:56:35;17.20;99.90
29731;DHT22;16639;51.488;0.152;2023-06-14T07:59:03;17.30;99.90
29731;DHT22;16639;51.488;0.152;2023-06-14T08:01:30;17.30;99.90
29731;DHT22;16639;51.488;0.152;2023-06-14T08:03:59;17.30;99.90
29731;DHT22;16639;51.488;0.152;2023-06-14T08:06:26;17.40;99.90
29731;DHT22;16639;51.488;0.152;2023-06-14T08:08:54;17.50;99.90
29731;DHT22;16639;51.488;0.152;2023-06-14T08:11:22;17.50;99.90
29731;DHT22;16639;51.488;0.152;2023-06-14T08:13:51;17.60;99.90
29731;DHT22;16639;51.488;0.152;2023-06-14T08:16:18;17.60;99.90
29731;DHT22;16639;51.488;0.152;2023-06-14T08:18:46;17.60;99.90
29731;DHT22;16639;51.488;0.152;2023-06-14T08:21:13;17.70;99.90
29731;DHT22;16639;51.488;0.152;2023-06-14T08:23:42;17.80;99.90
29731;DHT22;16639;51.488;0.152;2023-06-14T08:26:10;17.80;99.90
29731;DHT22;16639;51.488;0.152;2023-06-14T08:28:38;17.80;99.90
29731;DHT22;16639;51.488;0.152;2023-06-14T08:31:05;17.90;99.90
29731;DHT22;16639;51.488;0.152;2023-06-14T08:33:32;17.90;99.90
29731;DHT22;16639;51.488;0.152;2023-06-14T08:36:01;17.90;99.90
29731;DHT22;16639;51.488;0.152;2023-06-14T08:38:28;17.90;99.90
29731;DHT22;16639;51.488;0.152;2023-06-14T08:40:57;18.00;99.90
29731;DHT22;16639;51.488;0.152;2023-06-14T08:43:25;18.00;99.90
29731;DHT22;16639;51.488;0.152;2023-06-14T08:45:58;18.00;99.90
29731;DHT22;16639;51.488;0.152;2023-06-14T08:48:26;18.10;99.90
29731;DHT22;16639;51.488;0.152;2023-06-14T08:50:55;18.20;99.90
29731;DHT22;16639;51.488;0.152;2023-06-14T08:53:33;18.20;99.90
29731;DHT22;16639;51.488;0.152;2023-06-14T08:56:05;18.30;99.90
29731;DHT22;16639;51.488;0.152;2023-06-14T08:58:35;18.30;99.90
29731;DHT22;16639;51.488;0.152;2023-06-14T09:01:03;18.30;99.90
29731;DHT22;16639;51.488;0.152;2023-06-14T09:03:32;18.40;99.90
29731;DHT22;16639;51.488;0.152;2023-06-14T09:06:00;18.40;99.90
29731;DHT22;16639;51.488;0.152;2023-06-14T09:08:28;18.40;99.90
29731;DHT22;16639;51.488;0.152;2023-06-14T09:10:57;18.50;99.90
29731;DHT22;16639;51.488;0.152;2023-06-14T09:13:26;18.50;99.90
29731;DHT22;16639;51.488;0.152;2023-06-14T09:15:57;18.50;99.90
29731;DHT22;16639;51.488;0.152;2023-06-14T09:18:35;18.60;99.90
29731;DHT22;16639;51.488;0.152;2023-06-14T09:21:02;18.70;99.90
29731;DHT22;16639;51.488;0.152;2023-06-14T09:23:35;18.70;99.90
29731;DHT22;16639;51.488;0.152;2023-06-14T09:26:15;18.70;99.90
29731;DHT22;16639;51.488;0.152;2023-06-14T09:28:44;18.80;99.90
29731;DHT22;16639;51.488;0.152;2023-06-14T09:31:13;18.80;99.90
29731;DHT22;16639;51.488;0.152;2023-06-14T09:33:50;18.90;99.90
29731;DHT22;16639;51.488;0.152;2023-06-14T09:36:22;18.90;99.90
29731;DHT22;16639;51.488;0.152;2023-06-14T09:39:01;19.00;99.90
29731;DHT22;16639;51.488;0.152;2023-06-14T09:41:38;19.00;99.90
29731;DHT22;16639;51.488;0.152;2023-06-14T09:44:08;19.10;99.90
29731;DHT22;16639;51.488;0.152;2023-06-14T09:46:41;19.20;99.90
29731;DHT22;16639;51.488;0.152;2023-06-14T09:49:09;19.20;99.90
29731;DHT22;16639;51.488;0.152;2023-06-14T09:51:42;19.30;99.90
29731;DHT22;16639;51.488;0.152;2023-06-14T09:54:16;20.70;99.90
29731;DHT22;16639;51.488;0.152;2023-06-14T09:56:47;19.50;99.90
29731;DHT22;16639;51.488;0.152;2023-06-14T09:59:21;19.40;99.90
29731;DHT22;16639;51.488;0.152;2023-06-14T10:01:57;19.50;99.90
29731;DHT22;16639;51.488;0.152;2023-06-14T10:04:26;19.50;99.90
29731;DHT22;16639;51.488;0.152;2023-06-14T10:06:54;19.60;99.90
29731;DHT22;16639;51.488;0.152;2023-06-14T10:09:22;19.60;99.90
29731;DHT22;16639;51.488;0.152;2023-06-14T10:11:50;19.60;99.90
29731;DHT22;16639;51.488;0.152;2023-06-14T10:14:18;19.70;99.90
29731;DHT22;16639;51.488;0.152;2023-06-14T10:17:06;19.70;99.90
29731;DHT22;16639;51.488;0.152;2023-06-14T10:19:51;19.80;99.90
29731;DHT22;16639;51.488;0.152;2023-06-14T10:22:37;19.80;99.90
29731;DHT22;16639;51.488;0.152;2023-06-14T10:25:13;19.90;99.90
29731;DHT22;16639;51.488;0.152;2023-06-14T10:27:52;20.00;99.90
29731;DHT22;16639;51.488;0.152;2023-06-14T10:30:25;20.00;99.90
29731;DHT22;16639;51.488;0.152;2023-06-14T10:33:05;20.10;99.90
29731;DHT22;16639;51.488;0.152;2023-06-14T10:35:37;20.10;99.90
29731;DHT22;16639;51.488;0.152;2023-06-14T10:38:12;20.20;99.90
29731;DHT22;16639;51.488;0.152;2023-06-14T10:40:39;20.30;99.90
29731;DHT22;16639;51.488;0.152;2023-06-14T10:43:22;20.30;99.90
29731;DHT22;16639;51.488;0.152;2023-06-14T10:46:18;20.40;99.90
29731;DHT22;16639;51.488;0.152;2023-06-14T10:48:49;20.40;99.90
29731;DHT22;16639;51.488;0.152;2023-06-14T10:51:17;20.50;99.90
29731;DHT22;16639;51.488;0.152;2023-06-14T10:53:50;20.60;99.90
29731;DHT22;16639;51.488;0.152;2023-06-14T10:56:32;20.60;99.90
29731;DHT22;16639;51.488;0.152;2023-06-14T10:58:59;20.70;99.90
29731;DHT22;16639;51.488;0.152;2023-06-14T11:01:36;20.70;99.90
29731;DHT22;16639;51.488;0.152;2023-06-14T11:04:09;20.80;99.90
29731;DHT22;16639;51.488;0.152;2023-06-14T11:06:47;20.80;99.90
29731;DHT22;16639;51.488;0.152;2023-06-14T11:12:04;20.90;99.90
29731;DHT22;16639;51.488;0.152;2023-06-14T11:14:33;21.00;99.90
29731;DHT22;16639;51.488;0.152;2023-06-14T11:17:00;20.90;99.90
29731;DHT22;16639;51.488;0.152;2023-06-14T11:19:28;21.10;99.90
29731;DHT22;16639;51.488;0.152;2023-06-14T11:21:56;21.10;99.90
29731;DHT22;16639;51.488;0.152;2023-06-14T11:24:24;21.10;99.90
29731;DHT22;16639;51.488;0.152;2023-06-14T11:26:52;21.20;99.90
29731;DHT22;16639;51.488;0.152;2023-06-14T11:29:20;21.20;99.90
29731;DHT22;16639;51.488;0.152;2023-06-14T11:31:47;21.40;99.90
29731;DHT22;16639;51.488;0.152;2023-06-14T11:34:15;21.30;99.90
29731;DHT22;16639;51.488;0.152;2023-06-14T11:36:43;21.30;99.90
29731;DHT22;16639;51.488;0.152;2023-06-14T11:39:11;21.30;99.90
29731;DHT22;16639;51.488;0.152;2023-06-14T11:41:41;21.40;99.90
29731;DHT22;16639;51.488;0.152;2023-06-14T11:44:09;21.40;99.90
29731;DHT22;16639;51.488;0.152;2023-06-14T11:46:36;21.50;99.90
29731;DHT22;16639;51.488;0.152;2023-06-14T11:49:04;21.50;99.90
29731;DHT22;16639;51.488;0.152;2023-06-14T11:51:34;21.60;99.90
29731;DHT22;16639;51.488;0.152;2023-06-14T11:54:03;21.70;99.90
29731;DHT22;16639;51.488;0.152;2023-06-14T11:56:31;21.70;99.90
29731;DHT22;16639;51.488;0.152;2023-06-14T11:59:03;21.80;99.90
29731;DHT22;16639;51.488;0.152;2023-06-14T12:01:36;21.70;99.90
29731;DHT22;16639;51.488;0.152;2023-06-14T12:04:06;21.80;99.90
29731;DHT22;16639;51.488;0.152;2023-06-14T12:06:33;21.80;99.90
29731;DHT22;16639;51.488;0.152;2023-06-14T12:09:04;21.80;99.90
29731;DHT22;16639;51.488;0.152;2023-06-14T12:11:35;21.90;99.90
29731;DHT22;16639;51.488;0.152;2023-06-14T12:14:04;21.90;99.90
29731;DHT22;16639;51.488;0.152;2023-06-14T12:16:34;21.90;99.90
29731;DHT22;16639;51.488;0.152;2023-06-14T12:19:12;22.00;99.90
29731;DHT22;16639;51.488;0.152;2023-06-14T12:21:40;22.00;99.90
29731;DHT22;16639;51.488;0.152;2023-06-14T12:24:08;22.10;99.90
29731;DHT22;16639;51.488;0.152;2023-06-14T12:26:40;22.10;99.90
29731;DHT22;16639;51.488;0.152;2023-06-14T12:29:08;22.20;99.90
29731;DHT22;16639;51.488;0.152;2023-06-14T12:31:35;22.20;99.90
29731;DHT22;16639;51.488;0.152;2023-06-14T12:34:03;22.30;99.90
29731;DHT22;16639;51.488;0.152;2023-06-14T12:36:30;22.30;99.90
29731;DHT22;16639;51.488;0.152;2023-06-14T12:38:59;22.40;99.90
29731;DHT22;16639;51.488;0.152;2023-06-14T12:41:27;22.50;99.90
29731;DHT22;16639;51.488;0.152;2023-06-14T12:43:55;22.50;99.90
29731;DHT22;16639;51.488;0.152;2023-06-14T12:46:22;22.60;99.90
29731;DHT22;16639;51.488;0.152;2023-06-14T12:48:50;22.60;99.90
29731;DHT22;16639;51.488;0.152;2023-06-14T12:51:17;22.60;99.90
29731;DHT22;16639;51.488;0.152;2023-06-14T12:53:45;22.60;99.90
29731;DHT22;16639;51.488;0.152;2023-06-14T12:56:12;22.60;99.90
29731;DHT22;16639;51.488;0.152;2023-06-14T12:58:40;22.70;99.90
29731;DHT22;16639;51.488;0.152;2023-06-14T13:01:07;22.80;99.90
29731;DHT22;16639;51.488;0.152;2023-06-14T13:03:35;22.80;99.90
29731;DHT22;16639;51.488;0.152;2023-06-14T13:06:03;22.80;99.90
29731;DHT22;16639;51.488;0.152;2023-06-14T13:08:31;22.80;99.90
29731;DHT22;16639;51.488;0.152;2023-06-14T13:10:58;22.90;99.90
29731;DHT22;16639;51.488;0.152;2023-06-14T13:13:26;22.90;99.90
29731;DHT22;16639;51.488;0.152;2023-06-14T13:15:53;22.90;99.90
29731;DHT22;16639;51.488;0.152;2023-06-14T13:18:21;23.00;99.90
29731;DHT22;16639;51.488;0.152;2023-06-14T13:20:48;23.40;99.90
29731;DHT22;16639;51.488;0.152;2023-06-14T13:23:16;23.00;99.90
29731;DHT22;16639;51.488;0.152;2023-06-14T13:25:44;23.10;99.90
29731;DHT22;16639;51.488;0.152;2023-06-14T13:28:11;23.10;99.90
29731;DHT22;16639;51.488;0.152;2023-06-14T13:30:39;23.20;99.90
29731;DHT22;16639;51.488;0.152;2023-06-14T13:33:06;23.20;99.90
29731;DHT22;16639;51.488;0.152;2023-06-14T13:35:34;23.20;99.90
29731;DHT22;16639;51.488;0.152;2023-06-14T13:38:02;23.20;99.90
29731;DHT22;16639;51.488;0.152;2023-06-14T13:40:29;23.20;99.90
29731;DHT22;16639;51.488;0.152;2023-06-14T13:42:57;23.30;99.90
29731;DHT22;16639;51.488;0.152;2023-06-14T13:45:24;23.30;99.90
29731;DHT22;16639;51.488;0.152;2023-06-14T13:47:52;23.30;99.90
29731;DHT22;16639;51.488;0.152;2023-06-14T13:50:26;22.80;99.90
29731;DHT22;16639;51.488;0.152;2023-06-14T13:52:54;23.40;99.90
29731;DHT22;16639;51.488;0.152;2023-06-14T13:55:21;23.40;99.90
29731;DHT22;16639;51.488;0.152;2023-06-14T13:57:48;23.40;99.90
29731;DHT22;16639;51.488;0.152;2023-06-14T14:00:16;23.40;99.90
29731;DHT22;16639;51.488;0.152;2023-06-14T14:02:48;23.50;99.90
29731;DHT22;16639;51.488;0.152;2023-06-14T14:05:18;23.50;99.90
29731;DHT22;16639;51.488;0.152;2023-06-14T14:07:45;23.50;99.90
29731;DHT22;16639;51.488;0.152;2023-06-14T14:10:12;23.50;99.90
29731;DHT22;16639;51.488;0.152;2023-06-14T14:12:41;23.50;99.90
29731;DHT22;16639;51.488;0.152;2023-06-14T14:15:09;23.50;99.90
29731;DHT22;16639;51.488;0.152;2023-06-14T14:17:41;23.60;99.90
29731;DHT22;16639;51.488;0.152;2023-06-14T14:20:09;23.60;99.90
29731;DHT22;16639;51.488;0.152;2023-06-14T14:22:39;23.50;99.90
29731;DHT22;16639;51.488;0.152;2023-06-14T14:25:08;23.50;99.90
29731;DHT22;16639;51.488;0.152;2023-06-14T14:27:36;23.50;99.90
29731;DHT22;16639;51.488;0.152;2023-06-14T14:30:04;23.80;99.90
29731;DHT22;16639;51.488;0.152;2023-06-14T14:32:31;23.50;99.90
29731;DHT22;16639;51.488;0.152;2023-06-14T14:34:59;23.50;99.90
29731;DHT22;16639;51.488;0.152;2023-06-14T14:37:26;23.50;99.90
29731;DHT22;16639;51.488;0.152;2023-06-14T14:39:54;23.50;99.90
29731;DHT22;16639;51.488;0.152;2023-06-14T14:42:24;23.50;99.90
29731;DHT22;16639;51.488;0.152;2023-06-14T14:44:53;23.50;99.90
29731;DHT22;16639;51.488;0.152;2023-06-14T14:47:21;23.50;99.90
29731;DHT22;16639;51.488;0.152;2023-06-14T14:49:48;23.50;99.90
29731;DHT22;16639;51.488;0.152;2023-06-14T14:52:15;23.50;99.90
29731;DHT22;16639;51.488;0.152;2023-06-14T14:54:51;23.50;99.90
29731;DHT22;16639;51.488;0.152;2023-06-14T14:57:18;23.50;99.90
29731;DHT22;16639;51.488;0.152;2023-06-14T14:59:46;23.50;99.90
29731;DHT22;16639;51.488;0.152;2023-06-14T15:02:13;23.50;99.90
29731;DHT22;16639;51.488;0.152;2023-06-14T15:04:41;23.50;99.90
29731;DHT22;16639;51.488;0.152;2023-06-14T15:07:09;23.50;99.90
29731;DHT22;16639;51.488;0.152;2023-06-14T15:09:38;23.50;99.90
29731;DHT22;16639;51.488;0.152;2023-06-14T15:12:05;23.50;99.90
29731;DHT22;16639;51.488;0.152;2023-06-14T15:14:34;23.50;99.90
29731;DHT22;16639;51.488;0.152;2023-06-14T15:17:02;23.50;99.90
29731;DHT22;16639;51.488;0.152;2023-06-14T15:19:32;23.50;99.90
29731;DHT22;16639;51.488;0.152;2023-06-14T15:22:01;23.50;99.90
29731;DHT22;16639;51.488;0.152;2023-06-14T15:24:30;23.50;99.90
29731;DHT22;16639;51.488;0.152;2023-06-14T15:27:11;23.50;99.90
29731;DHT22;16639;51.488;0.152;2023-06-14T15:29:42;23.50;99.90
29731;DHT22;16639;51.488;0.152;2023-06-14T15:32:10;23.50;99.90
29731;DHT22;16639;51.488;0.152;2023-06-14T15:34:38;23.50;99.90
29731;DHT22;16639;51.488;0.152;2023-06-14T15:37:07;23.60;99.90
29731;DHT22;16639;51.488;0.152;2023-06-14T15:39:34;23.50;99.90
29731;DHT22;16639;51.488;0.152;2023-06-14T15:42:02;23.60;99.90
29731;DHT22;16639;51.488;0.152;2023-06-14T15:44:30;23.50;99.90
29731;DHT22;16639;51.488;0.152;2023-06-14T15:46:58;23.60;99.90
29731;DHT22;16639;51.488;0.152;2023-06-14T15:49:25;23.60;99.90
29731;DHT22;16639;51.488;0.152;2023-06-14T15:51:53;23.50;99.90
29731;DHT22;16639;51.488;0.152;2023-06-14T15:54:20;23.40;99.90
29731;DHT22;16639;51.488;0.152;2023-06-14T15:56:48;23.50;99.90
29731;DHT22;16639;51.488;0.152;2023-06-14T15:59:16;23.50;99.90
29731;DHT22;16639;51.488;0.152;2023-06-14T16:01:44;23.50;99.90
29731;DHT22;16639;51.488;0.152;2023-06-14T16:04:11;23.30;99.90
29731;DHT22;16639;51.488;0.152;2023-06-14T16:06:39;23.40;99.90
29731;DHT22;16639;51.488;0.152;2023-06-14T16:09:06;23.50;99.90
29731;DHT22;16639;51.488;0.152;2023-06-14T16:11:34;23.50;99.90
29731;DHT22;16639;51.488;0.152;2023-06-14T16:14:01;23.40;99.90
29731;DHT22;16639;51.488;0.152;2023-06-14T16:16:29;23.50;99.90
29731;DHT22;16639;51.488;0.152;2023-06-14T16:18:56;23.50;99.90
29731;DHT22;16639;51.488;0.152;2023-06-14T16:21:24;23.50;99.90
29731;DHT22;16639;51.488;0.152;2023-06-14T16:23:53;23.50;99.90
29731;DHT22;16639;51.488;0.152;2023-06-14T16:26:21;23.50;99.90
29731;DHT22;16639;51.488;0.152;2023-06-14T16:28:51;23.50;99.90
29731;DHT22;16639;51.488;0.152;2023-06-14T16:31:21;23.50;99.90
29731;DHT22;16639;51.488;0.152;2023-06-14T16:33:49;23.50;99.90
29731;DHT22;16639;51.488;0.152;2023-06-14T16:36:22;23.50;99.90
29731;DHT22;16639;51.488;0.152;2023-06-14T16:38:50;23.60;99.90
29731;DHT22;16639;51.488;0.152;2023-06-14T16:41:18;23.50;99.90
29731;DHT22;16639;51.488;0.152;2023-06-14T16:43:45;23.50;99.90
29731;DHT22;16639;51.488;0.152;2023-06-14T16:46:14;23.50;99.90
29731;DHT22;16639;51.488;0.152;2023-06-14T16:48:41;23.50;99.90
29731;DHT22;16639;51.488;0.152;2023-06-14T16:51:09;23.50;99.90
29731;DHT22;16639;51.488;0.152;2023-06-14T16:53:36;23.50;99.90
29731;DHT22;16639;51.488;0.152;2023-06-14T16:56:03;23.60;99.90
29731;DHT22;16639;51.488;0.152;2023-06-14T16:58:33;23.50;99.90
29731;DHT22;16639;51.488;0.152;2023-06-14T17:01:01;23.50;99.90
29731;DHT22;16639;51.488;0.152;2023-06-14T17:03:28;23.50;99.90
29731;DHT22;16639;51.488;0.152;2023-06-14T17:05:56;23.50;99.90
29731;DHT22;16639;51.488;0.152;2023-06-14T17:08:24;23.50;99.90
29731;DHT22;16639;51.488;0.152;2023-06-14T17:10:52;23.50;99.90
29731;DHT22;16639;51.488;0.152;2023-06-14T17:13:20;23.40;99.90
29731;DHT22;16639;51.488;0.152;2023-06-14T17:15:48;23.40;99.90
29731;DHT22;16639;51.488;0.152;2023-06-14T17:18:16;23.40;99.90
29731;DHT22;16639;51.488;0.152;2023-06-14T17:20:44;23.40;99.90
29731;DHT22;16639;51.488;0.152;2023-06-14T17:23:13;23.40;99.90
29731;DHT22;16639;51.488;0.152;2023-06-14T17:25:40;23.40;99.90
29731;DHT22;16639;51.488;0.152;2023-06-14T17:28:07;23.40;99.90
29731;DHT22;16639;51.488;0.152;2023-06-14T17:30:35;23.40;99.90
29731;DHT22;16639;51.488;0.152;2023-06-14T17:33:08;23.40;99.90
29731;DHT22;16639;51.488;0.152;2023-06-14T17:35:40;23.40;99.90
29731;DHT22;16639;51.488;0.152;2023-06-14T17:38:07;23.40;99.90
29731;DHT22;16639;51.488;0.152;2023-06-14T17:40:35;23.30;99.90
29731;DHT22;16639;51.488;0.152;2023-06-14T17:43:16;23.30;99.90
29731;DHT22;16639;51.488;0.152;2023-06-14T17:45:43;23.30;99.90
29731;DHT22;16639;51.488;0.152;2023-06-14T17:48:11;23.30;99.90
29731;DHT22;16639;51.488;0.152;2023-06-14T17:50:39;23.30;99.90
29731;DHT22;16639;51.488;0.152;2023-06-14T17:53:07;23.30;99.90
29731;DHT22;16639;51.488;0.152;2023-06-14T17:55:34;23.30;99.90
29731;DHT22;16639;51.488;0.152;2023-06-14T17:58:02;23.20;99.90
29731;DHT22;16639;51.488;0.152;2023-06-14T18:00:33;23.20;99.90
29731;DHT22;16639;51.488;0.152;2023-06-14T18:03:00;23.20;99.90
29731;DHT22;16639;51.488;0.152;2023-06-14T18:05:29;23.20;99.90
29731;DHT22;16639;51.488;0.152;2023-06-14T18:07:57;23.10;99.90
29731;DHT22;16639;51.488;0.152;2023-06-14T18:10:25;23.00;99.90
29731;DHT22;16639;51.488;0.152;2023-06-14T18:12:54;23.10;99.90